createdAt,value
2022-11-18T00:04:01.701Z,97353.41
2022-11-18T00:09:03.165Z,97351.65
2022-11-18T00:14:18.358Z,97352.88
2022-11-18T00:19:26.167Z,97350.52
2022-11-18T00:24:27.638Z,97355.52
2022-11-18T00:29:30.441Z,97362.52
2022-11-18T00:34:31.599Z,97371.95
2022-11-18T00:39:32.963Z,97376.27
2022-11-18T00:44:34.534Z,97385.52
2022-11-18T00:49:35.786Z,97386.30
2022-11-18T00:54:36.893Z,97374.46
2022-11-18T00:59:38.018Z,97356.09
2022-11-18T01:04:39.121Z,97343.16
2022-11-18T01:09:40.313Z,97345.86
2022-11-18T01:14:41.448Z,97349.33
2022-11-18T01:19:45.717Z,97338.04
2022-11-18T01:24:46.839Z,97335.18
2022-11-18T01:29:48.052Z,97329.38
2022-11-18T01:34:49.172Z,97312.85
2022-11-18T01:39:50.376Z,97301.42
2022-11-18T01:44:59.417Z,97294.95
2022-11-18T01:50:01.681Z,97293.27
2022-11-18T01:55:12.187Z,97295.53
2022-11-18T02:00:13.886Z,97288.36
2022-11-18T02:05:16.077Z,97286.83
2022-11-18T02:10:22.013Z,97288.58
2022-11-18T02:15:33.620Z,97291.27
2022-11-18T02:20:41.539Z,97295.14
2022-11-18T02:26:07.891Z,97298.38
2022-11-18T02:31:21.645Z,97300.10
2022-11-18T02:36:34.887Z,97300.25
2022-11-18T02:41:39.119Z,97298.38
2022-11-18T02:46:43.673Z,97298.29
2022-11-18T02:51:47.182Z,97302.32
2022-11-18T02:56:51.090Z,97302.62
2022-11-18T03:01:53.453Z,97299.52
2022-11-18T03:07:30.647Z,97294.81
2022-11-18T03:12:35.234Z,97297.44
2022-11-18T03:17:51.487Z,97295.89
2022-11-18T03:22:59.794Z,97296.41
2022-11-18T03:28:19.575Z,97289.80
2022-11-18T03:33:28.208Z,97278.79
2022-11-18T03:38:33.532Z,97265.95
2022-11-18T03:43:39.483Z,97260.15
2022-11-18T03:48:56.170Z,97253.98
2022-11-18T03:54:03.027Z,97248.92
2022-11-18T03:59:07.294Z,97245.98
2022-11-18T04:04:09.682Z,97250.23
2022-11-18T04:09:32.967Z,97238.14
2022-11-18T04:14:37.706Z,97237.92
2022-11-18T04:19:39.484Z,97234.25
2022-11-18T04:24:41.057Z,97236.94
2022-11-18T04:29:42.259Z,97246.03
2022-11-18T04:34:43.474Z,97244.70
2022-11-18T04:39:44.635Z,97240.58
2022-11-18T04:44:45.793Z,97242.10
2022-11-18T04:49:46.957Z,97241.52
2022-11-18T04:54:48.217Z,97236.30
2022-11-18T04:59:49.377Z,97243.01
2022-11-18T05:04:50.548Z,97242.26
2022-11-18T05:09:51.702Z,97241.13
2022-11-18T05:14:52.864Z,97247.77
2022-11-18T05:19:54.227Z,97249.16
2022-11-18T05:24:55.393Z,97251.02
2022-11-18T05:29:56.480Z,97252.31
2022-11-18T05:34:57.968Z,97261.00
2022-11-18T05:39:59.082Z,97266.23
2022-11-18T05:45:00.205Z,97275.91
2022-11-18T05:50:01.604Z,97273.70
2022-11-18T05:55:03.990Z,97278.85
2022-11-18T06:00:05.761Z,97279.98
2022-11-18T06:05:14.445Z,97289.89
2022-11-18T06:10:23.955Z,97301.02
2022-11-18T06:15:34.704Z,97297.45
2022-11-18T06:20:40.000Z,97301.03
2022-11-18T06:25:41.282Z,97311.55
2022-11-18T06:30:42.524Z,97312.35
2022-11-18T06:35:44.270Z,97311.15
2022-11-18T06:40:45.563Z,97324.35
2022-11-18T06:46:09.335Z,97334.80
2022-11-18T06:51:11.128Z,97338.10
2022-11-18T06:56:14.541Z,97337.91
2022-11-18T07:01:18.834Z,97344.71
2022-11-18T07:06:25.770Z,97341.86
2022-11-18T07:11:27.957Z,97341.55
2022-11-18T07:16:29.224Z,97332.55
2022-11-18T07:21:30.485Z,97328.83
2022-11-18T07:26:31.647Z,97326.50
2022-11-18T07:31:34.643Z,97325.13
2022-11-18T07:36:36.627Z,97330.85
2022-11-18T07:41:39.562Z,97333.71
2022-11-18T07:46:40.632Z,97328.67
2022-11-18T07:51:41.747Z,97324.77
2022-11-18T07:56:43.417Z,97322.81
2022-11-18T08:01:44.640Z,97325.70
2022-11-18T08:06:48.085Z,97326.69
2022-11-18T08:11:49.257Z,97338.73
2022-11-18T08:16:50.416Z,97341.73
2022-11-18T08:21:51.585Z,97350.27
2022-11-18T08:26:52.736Z,97348.21
2022-11-18T08:31:54.203Z,97351.25
2022-11-18T08:36:55.446Z,97353.78
2022-11-18T08:41:57.864Z,97363.98
2022-11-18T08:46:58.958Z,97360.63
2022-11-18T08:52:00.112Z,97363.48
2022-11-18T08:57:01.340Z,97366.59
2022-11-18T09:02:02.581Z,97369.52
2022-11-18T09:07:03.782Z,97368.73
2022-11-18T09:12:05.510Z,97369.30
2022-11-18T09:17:06.808Z,97365.67
2022-11-18T09:22:08.882Z,97373.57
2022-11-18T09:27:16.407Z,97367.84
2022-11-18T09:32:19.219Z,97363.23
2022-11-18T09:37:20.458Z,97367.65
2022-11-18T09:42:46.014Z,97368.55
2022-11-18T09:47:47.963Z,97363.70
2022-11-18T09:52:54.685Z,97368.77
2022-11-18T09:57:58.408Z,97380.48
2022-11-18T10:03:29.440Z,97388.68
2022-11-18T10:08:51.485Z,97388.82
2022-11-18T10:14:16.374Z,97394.17
2022-11-18T10:19:47.157Z,97392.14
2022-11-18T10:24:53.576Z,97387.84
2022-11-18T10:29:57.366Z,97389.33
2022-11-18T10:34:58.833Z,97393.14
2022-11-18T10:40:02.860Z,97394.67
2022-11-18T10:45:17.227Z,97404.80
2022-11-18T10:50:30.011Z,97404.73
2022-11-18T10:55:32.349Z,97408.72
2022-11-18T11:00:33.510Z,97403.77
2022-11-18T11:05:34.987Z,97405.67
2022-11-18T11:10:36.458Z,97407.54
2022-11-18T11:15:43.311Z,97411.69
2022-11-18T11:20:45.217Z,97407.86
2022-11-18T11:31:28.184Z,97411.54
2022-11-18T11:37:17.489Z,97401.86
2022-11-18T11:42:31.544Z,97395.58
2022-11-18T11:47:49.395Z,97395.02
2022-11-18T11:53:16.823Z,97403.71
2022-11-18T11:58:34.311Z,97403.33
2022-11-18T12:04:18.629Z,97396.86
2022-11-18T12:09:38.856Z,97395.09
2022-11-18T12:14:52.649Z,97402.58
2022-11-18T12:19:53.963Z,97403.95
2022-11-18T12:24:55.073Z,97399.48
2022-11-18T12:30:00.893Z,97404.88
2022-11-18T12:35:22.791Z,97406.00
2022-11-18T12:40:50.553Z,97416.30
2022-11-18T12:45:55.558Z,97421.80
2022-11-18T12:50:59.044Z,97424.29
2022-11-18T12:56:00.571Z,97431.11
2022-11-18T13:01:11.098Z,97427.89
2022-11-18T13:06:25.720Z,97430.78
2022-11-18T13:11:45.432Z,97432.01
2022-11-18T13:17:07.210Z,97435.16
2022-11-18T13:22:36.631Z,97441.05
2022-11-18T13:28:05.296Z,97450.64
2022-11-18T13:33:11.152Z,97447.20
2022-11-18T13:38:28.176Z,97455.42
2022-11-18T13:43:31.811Z,97462.98
2022-11-18T13:48:36.760Z,97468.69
2022-11-18T13:53:40.580Z,97476.95
2022-11-18T13:59:16.899Z,97483.81
2022-11-18T14:04:26.706Z,97496.52
2022-11-18T14:09:29.766Z,97500.10
2022-11-18T14:14:34.173Z,97497.67
2022-11-18T14:19:36.102Z,97493.61
2022-11-18T14:24:37.355Z,97494.45
2022-11-18T14:29:49.086Z,97502.14
2022-11-18T14:35:00.066Z,97512.27
2022-11-18T14:40:01.219Z,97512.05
2022-11-18T14:45:02.643Z,97509.38
2022-11-18T14:50:11.935Z,97512.95
2022-11-18T14:55:13.095Z,97516.40
2022-11-18T15:00:15.595Z,97523.17
2022-11-18T15:05:16.889Z,97533.95
2022-11-18T15:10:18.216Z,97534.80
2022-11-18T15:15:19.610Z,97546.31
2022-11-18T15:20:22.524Z,97544.43
2022-11-18T15:25:23.667Z,97544.71
2022-11-18T15:30:24.803Z,97545.69
2022-11-18T15:35:25.966Z,97553.11
2022-11-18T15:40:27.259Z,97553.63
2022-11-18T15:45:28.387Z,97563.13
2022-11-18T15:50:29.548Z,97571.85
2022-11-18T15:55:30.810Z,97583.33
2022-11-18T16:00:31.972Z,97573.36
2022-11-18T16:05:33.130Z,97578.81
2022-11-18T16:10:52.822Z,97578.15
2022-11-18T16:15:53.907Z,97587.45
2022-11-18T16:20:59.390Z,97595.45
2022-11-18T16:26:00.506Z,97599.03
2022-11-18T16:31:20.295Z,97607.68
2022-11-18T16:36:26.689Z,97614.05
2022-11-18T16:41:33.599Z,97619.40
2022-11-18T16:46:37.300Z,97625.02
2022-11-18T16:51:41.978Z,97629.39
2022-11-18T16:56:43.317Z,97636.39
2022-11-18T17:01:44.675Z,97648.79
2022-11-18T17:06:46.880Z,97653.17
2022-11-18T17:11:49.246Z,97644.03
2022-11-18T17:16:51.640Z,97645.23
2022-11-18T17:21:52.823Z,97651.34
2022-11-18T17:26:54.722Z,97659.58
2022-11-18T17:31:55.754Z,97664.65
2022-11-18T17:37:01.572Z,97664.75
2022-11-18T17:42:17.106Z,97672.10
2022-11-18T17:47:18.258Z,97673.36
2022-11-18T17:52:19.576Z,97678.95
2022-11-18T17:57:20.684Z,97687.48
2022-11-18T18:02:21.852Z,97670.61
2022-11-18T18:07:23.375Z,97672.17
2022-11-18T18:12:43.260Z,97686.59
2022-11-18T18:17:46.609Z,97684.62
2022-11-18T18:22:47.889Z,97692.09
2022-11-18T18:27:48.939Z,97702.66
2022-11-18T18:32:52.614Z,97701.53
2022-11-18T18:37:54.237Z,97710.49
2022-11-18T18:42:55.398Z,97714.89
2022-11-18T18:48:02.056Z,97720.98
2022-11-18T18:53:03.250Z,97722.15
2022-11-18T18:58:04.325Z,97727.09
2022-11-18T19:03:05.470Z,97736.73
2022-11-18T19:08:06.570Z,97730.85
2022-11-18T19:13:08.325Z,97741.17
2022-11-18T19:18:09.589Z,97737.06
2022-11-18T19:23:11.093Z,97735.52
2022-11-18T19:28:12.188Z,97742.62
2022-11-18T19:33:13.470Z,97747.98
2022-11-18T19:38:14.549Z,97749.46
2022-11-18T19:43:15.652Z,97747.33
2022-11-18T19:48:16.926Z,97755.48
2022-11-18T19:53:34.362Z,97757.06
2022-11-18T19:58:37.586Z,97752.23
2022-11-18T20:03:39.056Z,97751.34
2022-11-18T20:08:40.519Z,97753.55
2022-11-18T20:13:43.284Z,97771.26
2022-11-18T20:18:47.162Z,97780.34
2022-11-18T20:23:59.977Z,97784.20
2022-11-18T20:29:01.803Z,97784.98
2022-11-18T20:34:04.037Z,97783.65
2022-11-18T20:39:13.290Z,97781.22
2022-11-18T20:44:14.548Z,97785.89
2022-11-18T20:49:15.610Z,97797.85
2022-11-18T20:54:16.920Z,97803.16
2022-11-18T20:59:18.270Z,97796.36
2022-11-18T21:04:19.604Z,97811.08
2022-11-18T21:09:21.175Z,97804.43
2022-11-18T21:14:25.332Z,97816.68
2022-11-18T21:19:28.211Z,97828.63
2022-11-18T21:24:31.569Z,97836.98
2022-11-18T21:29:32.977Z,97842.38
2022-11-18T21:34:34.146Z,97833.08
2022-11-18T21:39:35.183Z,97839.59
2022-11-18T21:44:36.363Z,97852.70
2022-11-18T21:49:37.401Z,97865.30
2022-11-18T21:54:38.503Z,97860.05
2022-11-18T21:59:39.736Z,97853.75
2022-11-18T22:04:53.187Z,97846.14
2022-11-18T22:09:54.756Z,97853.09
2022-11-18T22:15:01.041Z,97859.80
2022-11-18T22:20:02.303Z,97870.30
2022-11-18T22:25:04.281Z,97877.20
2022-11-18T22:30:06.680Z,97882.52
2022-11-18T22:35:08.491Z,97881.11
2022-11-18T22:40:10.332Z,97881.91
2022-11-18T22:45:11.483Z,97889.56
2022-11-18T22:50:12.646Z,97896.89
2022-11-18T22:55:14.034Z,97899.77
2022-11-18T23:00:16.243Z,97902.11
2022-11-18T23:05:17.493Z,97905.09
2022-11-18T23:10:18.592Z,97916.64
2022-11-18T23:15:19.652Z,97919.30
2022-11-18T23:20:21.345Z,97913.89
2022-11-18T23:25:22.569Z,97912.10
2022-11-18T23:30:23.772Z,97918.25
2022-11-18T23:35:24.932Z,97918.36
2022-11-18T23:40:27.978Z,97918.88
2022-11-18T23:45:29.199Z,97917.82
2022-11-18T23:50:33.974Z,97925.19
2022-11-18T23:55:37.615Z,97929.10
